sensor_id;sensor_type;location;lat;lon;timestamp;P1;durP1;ratioP1;P2;durP2;ratioP2
4391;SDS011;2210;51.938;8.488;2022-07-10T00:01:48;2.03;;;0.93;;
4391;SDS011;2210;51.938;8.488;2022-07-10T00:05:48;3.57;;;1.10;;
4391;SDS011;2210;51.938;8.488;2022-07-10T00:09:49;6.10;;;1.87;;
4391;SDS011;2210;51.938;8.488;2022-07-10T00:13:49;3.73;;;1.20;;
4391;SDS011;2210;51.938;8.488;2022-07-10T00:17:50;5.15;;;1.60;;
4391;SDS011;2210;51.938;8.488;2022-07-10T00:21:50;5.50;;;1.30;;
4391;SDS011;2210;51.938;8.488;2022-07-10T00:25:50;2.22;;;1.00;;
4391;SDS011;2210;51.938;8.488;2022-07-10T00:29:50;5.18;;;1.05;;
4391;SDS011;2210;51.938;8.488;2022-07-10T00:33:52;4.30;;;1.17;;
4391;SDS011;2210;51.938;8.488;2022-07-10T00:37:52;3.88;;;1.30;;
4391;SDS011;2210;51.938;8.488;2022-07-10T00:41:52;5.73;;;1.30;;
4391;SDS011;2210;51.938;8.488;2022-07-10T00:45:52;5.27;;;1.10;;
4391;SDS011;2210;51.938;8.488;2022-07-10T00:49:53;3.23;;;1.20;;
4391;SDS011;2210;51.938;8.488;2022-07-10T00:53:53;4.43;;;1.50;;
4391;SDS011;2210;51.938;8.488;2022-07-10T00:57:54;2.80;;;1.17;;
4391;SDS011;2210;51.938;8.488;2022-07-10T01:01:55;3.13;;;1.00;;
4391;SDS011;2210;51.938;8.488;2022-07-10T01:05:55;4.77;;;1.20;;
4391;SDS011;2210;51.938;8.488;2022-07-10T01:09:56;5.37;;;1.33;;
4391;SDS011;2210;51.938;8.488;2022-07-10T01:13:57;3.93;;;1.30;;
4391;SDS011;2210;51.938;8.488;2022-07-10T01:17:57;3.22;;;1.30;;
4391;SDS011;2210;51.938;8.488;2022-07-10T01:21:58;3.70;;;1.03;;
4391;SDS011;2210;51.938;8.488;2022-07-10T01:25:58;2.13;;;1.00;;
4391;SDS011;2210;51.938;8.488;2022-07-10T01:29:59;3.03;;;1.13;;
4391;SDS011;2210;51.938;8.488;2022-07-10T01:34:00;4.90;;;1.17;;
4391;SDS011;2210;51.938;8.488;2022-07-10T01:38:01;3.03;;;1.03;;
4391;SDS011;2210;51.938;8.488;2022-07-10T01:42:02;3.70;;;1.13;;
4391;SDS011;2210;51.938;8.488;2022-07-10T01:46:03;3.87;;;1.20;;
4391;SDS011;2210;51.938;8.488;2022-07-10T01:50:04;2.80;;;1.20;;
4391;SDS011;2210;51.938;8.488;2022-07-10T01:54:05;3.60;;;1.40;;
4391;SDS011;2210;51.938;8.488;2022-07-10T01:58:05;3.13;;;1.43;;
4391;SDS011;2210;51.938;8.488;2022-07-10T02:02:05;4.38;;;1.58;;
4391;SDS011;2210;51.938;8.488;2022-07-10T02:06:06;4.43;;;1.50;;
4391;SDS011;2210;51.938;8.488;2022-07-10T02:10:07;7.27;;;1.20;;
4391;SDS011;2210;51.938;8.488;2022-07-10T02:14:07;6.50;;;1.73;;
4391;SDS011;2210;51.938;8.488;2022-07-10T02:18:08;4.20;;;1.33;;
4391;SDS011;2210;51.938;8.488;2022-07-10T02:22:08;7.40;;;1.37;;
4391;SDS011;2210;51.938;8.488;2022-07-10T02:26:08;4.05;;;1.23;;
4391;SDS011;2210;51.938;8.488;2022-07-10T02:30:09;7.38;;;1.52;;
4391;SDS011;2210;51.938;8.488;2022-07-10T02:34:10;3.03;;;1.00;;
4391;SDS011;2210;51.938;8.488;2022-07-10T02:38:11;10.47;;;1.47;;
4391;SDS011;2210;51.938;8.488;2022-07-10T02:42:11;2.83;;;1.20;;
4391;SDS011;2210;51.938;8.488;2022-07-10T02:46:11;7.40;;;1.37;;
4391;SDS011;2210;51.938;8.488;2022-07-10T02:50:12;4.10;;;1.20;;
4391;SDS011;2210;51.938;8.488;2022-07-10T02:54:12;1.90;;;1.00;;
4391;SDS011;2210;51.938;8.488;2022-07-10T02:58:12;1.63;;;1.20;;
4391;SDS011;2210;51.938;8.488;2022-07-10T03:02:15;3.93;;;1.33;;
4391;SDS011;2210;51.938;8.488;2022-07-10T03:06:15;8.90;;;1.43;;
4391;SDS011;2210;51.938;8.488;2022-07-10T03:10:15;5.40;;;1.67;;
4391;SDS011;2210;51.938;8.488;2022-07-10T03:14:16;5.13;;;1.20;;
4391;SDS011;2210;51.938;8.488;2022-07-10T03:18:16;5.70;;;1.67;;
4391;SDS011;2210;51.938;8.488;2022-07-10T03:22:17;3.65;;;1.23;;
4391;SDS011;2210;51.938;8.488;2022-07-10T03:26:17;10.87;;;1.40;;
4391;SDS011;2210;51.938;8.488;2022-07-10T03:30:17;2.00;;;0.93;;
4391;SDS011;2210;51.938;8.488;2022-07-10T03:34:19;7.63;;;1.60;;
4391;SDS011;2210;51.938;8.488;2022-07-10T03:38:20;5.93;;;1.53;;
4391;SDS011;2210;51.938;8.488;2022-07-10T03:42:20;5.63;;;1.23;;
4391;SDS011;2210;51.938;8.488;2022-07-10T03:46:20;5.43;;;1.90;;
4391;SDS011;2210;51.938;8.488;2022-07-10T03:50:20;10.10;;;1.70;;
4391;SDS011;2210;51.938;8.488;2022-07-10T03:54:21;3.60;;;1.47;;
4391;SDS011;2210;51.938;8.488;2022-07-10T03:58:22;2.97;;;1.47;;
4391;SDS011;2210;51.938;8.488;2022-07-10T04:02:22;4.47;;;0.93;;
4391;SDS011;2210;51.938;8.488;2022-07-10T04:06:23;4.03;;;1.20;;
4391;SDS011;2210;51.938;8.488;2022-07-10T04:10:23;6.43;;;1.75;;
4391;SDS011;2210;51.938;8.488;2022-07-10T04:14:24;5.87;;;1.50;;
4391;SDS011;2210;51.938;8.488;2022-07-10T04:18:25;9.57;;;1.83;;
4391;SDS011;2210;51.938;8.488;2022-07-10T04:22:25;1.75;;;1.00;;
4391;SDS011;2210;51.938;8.488;2022-07-10T04:26:26;11.50;;;1.83;;
4391;SDS011;2210;51.938;8.488;2022-07-10T04:30:26;4.70;;;1.30;;
4391;SDS011;2210;51.938;8.488;2022-07-10T04:34:27;4.53;;;1.43;;
4391;SDS011;2210;51.938;8.488;2022-07-10T04:38:27;8.18;;;2.20;;
4391;SDS011;2210;51.938;8.488;2022-07-10T04:42:27;14.45;;;1.77;;
4391;SDS011;2210;51.938;8.488;2022-07-10T04:46:28;3.43;;;1.30;;
4391;SDS011;2210;51.938;8.488;2022-07-10T04:50:28;5.80;;;1.60;;
4391;SDS011;2210;51.938;8.488;2022-07-10T04:54:28;4.63;;;1.60;;
4391;SDS011;2210;51.938;8.488;2022-07-10T04:58:28;7.17;;;1.53;;
4391;SDS011;2210;51.938;8.488;2022-07-10T05:02:29;4.47;;;1.80;;
4391;SDS011;2210;51.938;8.488;2022-07-10T05:06:29;6.55;;;1.60;;
4391;SDS011;2210;51.938;8.488;2022-07-10T05:10:30;7.27;;;1.47;;
4391;SDS011;2210;51.938;8.488;2022-07-10T05:14:30;4.73;;;1.40;;
4391;SDS011;2210;51.938;8.488;2022-07-10T05:18:30;3.35;;;1.33;;
4391;SDS011;2210;51.938;8.488;2022-07-10T05:22:31;6.70;;;1.50;;
4391;SDS011;2210;51.938;8.488;2022-07-10T05:26:31;5.07;;;1.70;;
4391;SDS011;2210;51.938;8.488;2022-07-10T05:30:31;8.70;;;2.05;;
4391;SDS011;2210;51.938;8.488;2022-07-10T05:34:32;4.40;;;1.60;;
4391;SDS011;2210;51.938;8.488;2022-07-10T05:38:32;3.33;;;1.33;;
4391;SDS011;2210;51.938;8.488;2022-07-10T05:42:33;5.90;;;1.30;;
4391;SDS011;2210;51.938;8.488;2022-07-10T05:46:34;9.00;;;1.90;;
4391;SDS011;2210;51.938;8.488;2022-07-10T05:50:34;5.40;;;1.47;;
4391;SDS011;2210;51.938;8.488;2022-07-10T05:54:34;7.50;;;1.33;;
4391;SDS011;2210;51.938;8.488;2022-07-10T05:58:34;2.53;;;1.20;;
4391;SDS011;2210;51.938;8.488;2022-07-10T06:02:35;4.03;;;1.45;;
4391;SDS011;2210;51.938;8.488;2022-07-10T06:06:35;4.97;;;1.30;;
4391;SDS011;2210;51.938;8.488;2022-07-10T06:10:35;2.50;;;1.13;;
4391;SDS011;2210;51.938;8.488;2022-07-10T06:14:36;6.77;;;1.70;;
4391;SDS011;2210;51.938;8.488;2022-07-10T06:18:36;3.10;;;1.05;;
4391;SDS011;2210;51.938;8.488;2022-07-10T06:22:36;6.78;;;1.77;;
4391;SDS011;2210;51.938;8.488;2022-07-10T06:26:36;8.17;;;1.80;;
4391;SDS011;2210;51.938;8.488;2022-07-10T06:30:37;7.50;;;1.65;;
4391;SDS011;2210;51.938;8.488;2022-07-10T06:34:37;5.97;;;1.63;;
4391;SDS011;2210;51.938;8.488;2022-07-10T06:38:38;3.97;;;1.70;;
4391;SDS011;2210;51.938;8.488;2022-07-10T06:42:38;4.07;;;1.20;;
4391;SDS011;2210;51.938;8.488;2022-07-10T06:46:38;5.20;;;1.60;;
4391;SDS011;2210;51.938;8.488;2022-07-10T06:50:38;5.53;;;1.30;;
4391;SDS011;2210;51.938;8.488;2022-07-10T06:54:39;5.87;;;1.37;;
4391;SDS011;2210;51.938;8.488;2022-07-10T06:58:39;6.20;;;1.30;;
4391;SDS011;2210;51.938;8.488;2022-07-10T07:02:39;7.88;;;1.90;;
4391;SDS011;2210;51.938;8.488;2022-07-10T07:06:40;8.85;;;1.35;;
4391;SDS011;2210;51.938;8.488;2022-07-10T07:10:40;6.82;;;1.75;;
4391;SDS011;2210;51.938;8.488;2022-07-10T07:14:40;5.40;;;1.40;;
4391;SDS011;2210;51.938;8.488;2022-07-10T07:18:41;6.40;;;2.08;;
4391;SDS011;2210;51.938;8.488;2022-07-10T07:22:47;5.83;;;1.60;;
4391;SDS011;2210;51.938;8.488;2022-07-10T07:27:06;6.50;;;1.40;;
4391;SDS011;2210;51.938;8.488;2022-07-10T07:31:06;6.60;;;1.50;;
4391;SDS011;2210;51.938;8.488;2022-07-10T07:35:07;4.72;;;1.30;;
4391;SDS011;2210;51.938;8.488;2022-07-10T07:39:08;2.17;;;1.30;;
4391;SDS011;2210;51.938;8.488;2022-07-10T07:43:08;7.60;;;1.90;;
4391;SDS011;2210;51.938;8.488;2022-07-10T07:47:09;8.40;;;1.67;;
4391;SDS011;2210;51.938;8.488;2022-07-10T07:51:09;5.25;;;1.88;;
4391;SDS011;2210;51.938;8.488;2022-07-10T07:55:10;6.20;;;1.50;;
4391;SDS011;2210;51.938;8.488;2022-07-10T07:59:12;5.17;;;1.70;;
4391;SDS011;2210;51.938;8.488;2022-07-10T08:03:12;4.45;;;1.67;;
4391;SDS011;2210;51.938;8.488;2022-07-10T08:07:13;3.47;;;1.70;;
4391;SDS011;2210;51.938;8.488;2022-07-10T08:11:13;3.43;;;1.50;;
4391;SDS011;2210;51.938;8.488;2022-07-10T08:15:15;5.33;;;1.40;;
4391;SDS011;2210;51.938;8.488;2022-07-10T08:19:17;5.30;;;1.33;;
4391;SDS011;2210;51.938;8.488;2022-07-10T08:23:17;4.13;;;1.30;;
4391;SDS011;2210;51.938;8.488;2022-07-10T08:27:20;6.88;;;1.30;;
4391;SDS011;2210;51.938;8.488;2022-07-10T08:31:20;4.90;;;1.37;;
4391;SDS011;2210;51.938;8.488;2022-07-10T08:35:21;7.65;;;1.67;;
4391;SDS011;2210;51.938;8.488;2022-07-10T08:39:21;4.33;;;1.77;;
4391;SDS011;2210;51.938;8.488;2022-07-10T08:43:22;3.47;;;1.60;;
4391;SDS011;2210;51.938;8.488;2022-07-10T08:47:22;5.47;;;1.60;;
4391;SDS011;2210;51.938;8.488;2022-07-10T08:51:24;9.70;;;1.50;;
4391;SDS011;2210;51.938;8.488;2022-07-10T08:55:30;4.50;;;1.70;;
4391;SDS011;2210;51.938;8.488;2022-07-10T08:59:30;3.38;;;1.40;;
4391;SDS011;2210;51.938;8.488;2022-07-10T09:03:32;7.50;;;1.70;;
4391;SDS011;2210;51.938;8.488;2022-07-10T09:07:35;3.93;;;1.30;;
4391;SDS011;2210;51.938;8.488;2022-07-10T09:11:37;1.50;;;1.00;;
4391;SDS011;2210;51.938;8.488;2022-07-10T09:15:47;4.30;;;1.33;;
4391;SDS011;2210;51.938;8.488;2022-07-10T09:19:48;4.50;;;1.10;;
4391;SDS011;2210;51.938;8.488;2022-07-10T09:23:49;6.07;;;1.40;;
4391;SDS011;2210;51.938;8.488;2022-07-10T09:27:52;5.37;;;1.70;;
4391;SDS011;2210;51.938;8.488;2022-07-10T09:31:55;3.33;;;1.17;;
4391;SDS011;2210;51.938;8.488;2022-07-10T09:36:09;3.07;;;1.50;;
4391;SDS011;2210;51.938;8.488;2022-07-10T09:40:11;8.40;;;1.60;;
4391;SDS011;2210;51.938;8.488;2022-07-10T09:44:11;6.60;;;2.10;;
4391;SDS011;2210;51.938;8.488;2022-07-10T09:48:14;4.33;;;1.70;;
4391;SDS011;2210;51.938;8.488;2022-07-10T09:52:23;4.40;;;1.30;;
4391;SDS011;2210;51.938;8.488;2022-07-10T09:56:24;9.40;;;1.60;;
4391;SDS011;2210;51.938;8.488;2022-07-10T10:00:29;4.47;;;1.20;;
4391;SDS011;2210;51.938;8.488;2022-07-10T10:04:31;3.43;;;1.20;;
4391;SDS011;2210;51.938;8.488;2022-07-10T10:08:42;5.57;;;1.50;;
4391;SDS011;2210;51.938;8.488;2022-07-10T10:12:48;4.17;;;1.27;;
4391;SDS011;2210;51.938;8.488;2022-07-10T10:16:55;4.63;;;1.63;;
4391;SDS011;2210;51.938;8.488;2022-07-10T10:20:56;7.37;;;1.27;;
4391;SDS011;2210;51.938;8.488;2022-07-10T10:24:56;5.47;;;1.20;;
4391;SDS011;2210;51.938;8.488;2022-07-10T10:28:58;6.23;;;1.53;;
4391;SDS011;2210;51.938;8.488;2022-07-10T10:33:00;10.60;;;2.43;;
4391;SDS011;2210;51.938;8.488;2022-07-10T10:37:00;5.30;;;1.80;;
4391;SDS011;2210;51.938;8.488;2022-07-10T10:45:33;3.83;;;1.10;;
4391;SDS011;2210;51.938;8.488;2022-07-10T10:49:47;9.23;;;1.90;;
4391;SDS011;2210;51.938;8.488;2022-07-10T10:54:03;4.40;;;1.27;;
4391;SDS011;2210;51.938;8.488;2022-07-10T10:58:12;5.53;;;1.60;;
4391;SDS011;2210;51.938;8.488;2022-07-10T11:02:21;4.40;;;1.57;;
4391;SDS011;2210;51.938;8.488;2022-07-10T11:10:53;3.83;;;1.20;;
4391;SDS011;2210;51.938;8.488;2022-07-10T11:14:54;2.30;;;1.10;;
4391;SDS011;2210;51.938;8.488;2022-07-10T11:18:55;5.50;;;1.50;;
4391;SDS011;2210;51.938;8.488;2022-07-10T11:23:19;3.38;;;0.85;;
4391;SDS011;2210;51.938;8.488;2022-07-10T11:27:29;3.50;;;0.93;;
4391;SDS011;2210;51.938;8.488;2022-07-10T11:31:35;3.10;;;1.03;;
4391;SDS011;2210;51.938;8.488;2022-07-10T11:35:44;1.43;;;1.10;;
4391;SDS011;2210;51.938;8.488;2022-07-10T11:39:46;1.40;;;0.80;;
4391;SDS011;2210;51.938;8.488;2022-07-10T11:43:49;1.75;;;0.90;;
4391;SDS011;2210;51.938;8.488;2022-07-10T11:47:51;2.57;;;1.03;;
4391;SDS011;2210;51.938;8.488;2022-07-10T11:51:51;4.10;;;0.80;;
4391;SDS011;2210;51.938;8.488;2022-07-10T11:55:51;4.33;;;1.63;;
4391;SDS011;2210;51.938;8.488;2022-07-10T11:59:53;4.00;;;1.33;;
4391;SDS011;2210;51.938;8.488;2022-07-10T12:03:56;5.43;;;2.08;;
4391;SDS011;2210;51.938;8.488;2022-07-10T12:07:58;3.47;;;1.27;;
4391;SDS011;2210;51.938;8.488;2022-07-10T12:12:02;2.83;;;1.47;;
4391;SDS011;2210;51.938;8.488;2022-07-10T12:16:06;2.80;;;1.60;;
4391;SDS011;2210;51.938;8.488;2022-07-10T12:20:07;3.37;;;1.13;;
4391;SDS011;2210;51.938;8.488;2022-07-10T12:24:11;4.20;;;1.40;;
4391;SDS011;2210;51.938;8.488;2022-07-10T12:28:12;1.80;;;1.40;;
4391;SDS011;2210;51.938;8.488;2022-07-10T12:32:13;5.10;;;1.33;;
4391;SDS011;2210;51.938;8.488;2022-07-10T12:36:22;2.17;;;1.17;;
4391;SDS011;2210;51.938;8.488;2022-07-10T12:40:29;2.50;;;1.07;;
4391;SDS011;2210;51.938;8.488;2022-07-10T12:44:40;1.80;;;1.40;;
4391;SDS011;2210;51.938;8.488;2022-07-10T12:48:42;2.00;;;1.20;;
4391;SDS011;2210;51.938;8.488;2022-07-10T12:52:44;1.47;;;1.10;;
4391;SDS011;2210;51.938;8.488;2022-07-10T12:56:45;1.20;;;1.10;;
4391;SDS011;2210;51.938;8.488;2022-07-10T13:00:46;2.03;;;1.20;;
4391;SDS011;2210;51.938;8.488;2022-07-10T13:04:52;1.63;;;0.90;;
4391;SDS011;2210;51.938;8.488;2022-07-10T13:08:53;1.40;;;0.90;;
4391;SDS011;2210;51.938;8.488;2022-07-10T13:12:54;0.80;;;0.80;;
4391;SDS011;2210;51.938;8.488;2022-07-10T13:16:54;0.90;;;0.80;;
4391;SDS011;2210;51.938;8.488;2022-07-10T13:20:55;2.28;;;0.95;;
4391;SDS011;2210;51.938;8.488;2022-07-10T13:24:58;1.50;;;1.10;;
4391;SDS011;2210;51.938;8.488;2022-07-10T13:28:58;1.83;;;0.90;;
4391;SDS011;2210;51.938;8.488;2022-07-10T13:32:59;1.40;;;0.90;;
4391;SDS011;2210;51.938;8.488;2022-07-10T13:37:00;0.80;;;0.73;;
4391;SDS011;2210;51.938;8.488;2022-07-10T13:41:01;1.30;;;0.80;;
4391;SDS011;2210;51.938;8.488;2022-07-10T13:45:01;0.70;;;0.70;;
4391;SDS011;2210;51.938;8.488;2022-07-10T13:49:01;0.70;;;0.70;;
4391;SDS011;2210;51.938;8.488;2022-07-10T13:53:01;1.77;;;0.63;;
4391;SDS011;2210;51.938;8.488;2022-07-10T13:57:02;0.85;;;0.60;;
4391;SDS011;2210;51.938;8.488;2022-07-10T14:01:03;0.80;;;0.77;;
4391;SDS011;2210;51.938;8.488;2022-07-10T14:05:04;1.20;;;1.10;;
4391;SDS011;2210;51.938;8.488;2022-07-10T14:09:05;1.27;;;1.10;;
4391;SDS011;2210;51.938;8.488;2022-07-10T14:13:05;1.83;;;1.30;;
4391;SDS011;2210;51.938;8.488;2022-07-10T14:17:05;1.43;;;1.23;;
4391;SDS011;2210;51.938;8.488;2022-07-10T14:21:06;2.30;;;1.10;;
4391;SDS011;2210;51.938;8.488;2022-07-10T14:25:08;1.07;;;1.03;;
4391;SDS011;2210;51.938;8.488;2022-07-10T14:29:11;1.27;;;0.83;;
4391;SDS011;2210;51.938;8.488;2022-07-10T14:33:11;0.80;;;0.73;;
4391;SDS011;2210;51.938;8.488;2022-07-10T14:37:11;1.10;;;0.70;;
4391;SDS011;2210;51.938;8.488;2022-07-10T14:41:12;1.27;;;0.60;;
4391;SDS011;2210;51.938;8.488;2022-07-10T14:45:12;1.00;;;0.98;;
4391;SDS011;2210;51.938;8.488;2022-07-10T14:49:12;2.15;;;0.60;;
4391;SDS011;2210;51.938;8.488;2022-07-10T14:53:13;2.17;;;0.77;;
4391;SDS011;2210;51.938;8.488;2022-07-10T14:57:13;0.83;;;0.70;;
4391;SDS011;2210;51.938;8.488;2022-07-10T15:01:14;3.73;;;0.80;;
4391;SDS011;2210;51.938;8.488;2022-07-10T15:05:15;1.47;;;0.70;;
4391;SDS011;2210;51.938;8.488;2022-07-10T15:09:15;1.63;;;0.73;;
4391;SDS011;2210;51.938;8.488;2022-07-10T15:13:16;1.15;;;0.80;;
4391;SDS011;2210;51.938;8.488;2022-07-10T15:17:16;0.70;;;0.60;;
4391;SDS011;2210;51.938;8.488;2022-07-10T15:21:16;2.03;;;0.70;;
4391;SDS011;2210;51.938;8.488;2022-07-10T15:25:16;0.80;;;0.73;;
4391;SDS011;2210;51.938;8.488;2022-07-10T15:29:17;1.23;;;0.60;;
4391;SDS011;2210;51.938;8.488;2022-07-10T15:33:17;0.90;;;0.47;;
4391;SDS011;2210;51.938;8.488;2022-07-10T15:37:17;1.60;;;0.50;;
4391;SDS011;2210;51.938;8.488;2022-07-10T15:41:18;1.20;;;0.83;;
4391;SDS011;2210;51.938;8.488;2022-07-10T15:45:18;2.40;;;0.80;;
4391;SDS011;2210;51.938;8.488;2022-07-10T15:49:18;0.67;;;0.60;;
4391;SDS011;2210;51.938;8.488;2022-07-10T15:53:19;0.75;;;0.75;;
4391;SDS011;2210;51.938;8.488;2022-07-10T15:57:19;1.30;;;0.70;;
4391;SDS011;2210;51.938;8.488;2022-07-10T16:01:19;1.23;;;0.60;;
4391;SDS011;2210;51.938;8.488;2022-07-10T16:05:19;0.83;;;0.80;;
4391;SDS011;2210;51.938;8.488;2022-07-10T16:09:20;1.60;;;0.90;;
4391;SDS011;2210;51.938;8.488;2022-07-10T16:13:20;1.23;;;0.70;;
4391;SDS011;2210;51.938;8.488;2022-07-10T16:17:20;0.95;;;0.63;;
4391;SDS011;2210;51.938;8.488;2022-07-10T16:21:21;0.88;;;0.70;;
4391;SDS011;2210;51.938;8.488;2022-07-10T16:25:21;1.73;;;0.60;;
4391;SDS011;2210;51.938;8.488;2022-07-10T16:29:40;0.70;;;0.70;;
4391;SDS011;2210;51.938;8.488;2022-07-10T16:33:41;1.40;;;0.50;;
4391;SDS011;2210;51.938;8.488;2022-07-10T16:37:42;1.90;;;0.70;;
4391;SDS011;2210;51.938;8.488;2022-07-10T16:41:42;1.23;;;0.83;;
4391;SDS011;2210;51.938;8.488;2022-07-10T16:45:43;1.20;;;0.70;;
4391;SDS011;2210;51.938;8.488;2022-07-10T16:49:44;0.80;;;0.70;;
4391;SDS011;2210;51.938;8.488;2022-07-10T16:53:45;1.40;;;0.73;;
4391;SDS011;2210;51.938;8.488;2022-07-10T16:57:45;1.10;;;0.80;;
4391;SDS011;2210;51.938;8.488;2022-07-10T17:01:45;2.70;;;1.10;;
4391;SDS011;2210;51.938;8.488;2022-07-10T17:05:45;0.77;;;0.73;;
4391;SDS011;2210;51.938;8.488;2022-07-10T17:09:46;1.63;;;0.90;;
4391;SDS011;2210;51.938;8.488;2022-07-10T17:13:46;1.77;;;0.60;;
4391;SDS011;2210;51.938;8.488;2022-07-10T17:17:47;0.70;;;0.67;;
4391;SDS011;2210;51.938;8.488;2022-07-10T17:21:48;2.60;;;0.90;;
4391;SDS011;2210;51.938;8.488;2022-07-10T17:25:49;1.00;;;0.70;;
4391;SDS011;2210;51.938;8.488;2022-07-10T17:29:49;0.87;;;0.80;;
4391;SDS011;2210;51.938;8.488;2022-07-10T17:33:49;1.43;;;0.80;;
4391;SDS011;2210;51.938;8.488;2022-07-10T17:37:50;0.70;;;0.60;;
4391;SDS011;2210;51.938;8.488;2022-07-10T17:41:50;0.85;;;0.63;;
4391;SDS011;2210;51.938;8.488;2022-07-10T17:45:51;0.90;;;0.80;;
4391;SDS011;2210;51.938;8.488;2022-07-10T17:49:54;1.10;;;0.80;;
4391;SDS011;2210;51.938;8.488;2022-07-10T17:53:54;1.77;;;0.90;;
4391;SDS011;2210;51.938;8.488;2022-07-10T17:57:55;0.90;;;0.90;;
4391;SDS011;2210;51.938;8.488;2022-07-10T18:01:55;1.43;;;0.90;;
4391;SDS011;2210;51.938;8.488;2022-07-10T18:05:55;1.67;;;1.03;;
4391;SDS011;2210;51.938;8.488;2022-07-10T18:09:55;1.20;;;0.93;;
4391;SDS011;2210;51.938;8.488;2022-07-10T18:13:56;1.17;;;1.10;;
4391;SDS011;2210;51.938;8.488;2022-07-10T18:17:56;0.90;;;0.80;;
4391;SDS011;2210;51.938;8.488;2022-07-10T18:21:57;0.90;;;0.80;;
4391;SDS011;2210;51.938;8.488;2022-07-10T18:25:57;1.10;;;0.80;;
4391;SDS011;2210;51.938;8.488;2022-07-10T18:29:57;1.60;;;1.00;;
4391;SDS011;2210;51.938;8.488;2022-07-10T18:33:58;2.70;;;1.00;;
4391;SDS011;2210;51.938;8.488;2022-07-10T18:38:18;1.30;;;0.90;;
4391;SDS011;2210;51.938;8.488;2022-07-10T18:42:18;2.05;;;1.17;;
4391;SDS011;2210;51.938;8.488;2022-07-10T18:46:19;0.70;;;0.70;;
4391;SDS011;2210;51.938;8.488;2022-07-10T18:50:19;1.55;;;0.70;;
4391;SDS011;2210;51.938;8.488;2022-07-10T18:54:19;2.83;;;0.90;;
4391;SDS011;2210;51.938;8.488;2022-07-10T18:58:19;1.00;;;0.87;;
4391;SDS011;2210;51.938;8.488;2022-07-10T19:02:20;1.45;;;0.82;;
4391;SDS011;2210;51.938;8.488;2022-07-10T19:06:20;0.98;;;0.98;;
4391;SDS011;2210;51.938;8.488;2022-07-10T19:10:21;1.10;;;0.93;;
4391;SDS011;2210;51.938;8.488;2022-07-10T19:14:21;1.27;;;0.80;;
4391;SDS011;2210;51.938;8.488;2022-07-10T19:18:22;1.87;;;1.20;;
4391;SDS011;2210;51.938;8.488;2022-07-10T19:22:22;2.08;;;0.80;;
4391;SDS011;2210;51.938;8.488;2022-07-10T19:26:22;0.80;;;0.80;;
4391;SDS011;2210;51.938;8.488;2022-07-10T19:30:24;0.90;;;0.60;;
4391;SDS011;2210;51.938;8.488;2022-07-10T19:34:24;1.00;;;0.90;;
4391;SDS011;2210;51.938;8.488;2022-07-10T19:38:25;1.20;;;0.80;;
4391;SDS011;2210;51.938;8.488;2022-07-10T19:42:25;1.57;;;0.97;;
4391;SDS011;2210;51.938;8.488;2022-07-10T19:46:26;1.23;;;1.10;;
4391;SDS011;2210;51.938;8.488;2022-07-10T19:50:26;3.53;;;1.10;;
4391;SDS011;2210;51.938;8.488;2022-07-10T19:54:26;1.08;;;0.98;;
4391;SDS011;2210;51.938;8.488;2022-07-10T19:58:26;1.40;;;1.00;;
4391;SDS011;2210;51.938;8.488;2022-07-10T20:02:27;1.53;;;1.10;;
4391;SDS011;2210;51.938;8.488;2022-07-10T20:06:27;1.40;;;1.30;;
4391;SDS011;2210;51.938;8.488;2022-07-10T20:10:27;1.30;;;1.20;;
4391;SDS011;2210;51.938;8.488;2022-07-10T20:14:28;1.33;;;1.20;;
4391;SDS011;2210;51.938;8.488;2022-07-10T20:18:29;1.80;;;1.60;;
4391;SDS011;2210;51.938;8.488;2022-07-10T20:22:30;1.97;;;1.87;;
4391;SDS011;2210;51.938;8.488;2022-07-10T20:26:30;3.40;;;1.90;;
4391;SDS011;2210;51.938;8.488;2022-07-10T20:30:30;4.33;;;1.80;;
4391;SDS011;2210;51.938;8.488;2022-07-10T20:34:31;1.43;;;1.33;;
4391;SDS011;2210;51.938;8.488;2022-07-10T20:38:31;2.40;;;1.30;;
4391;SDS011;2210;51.938;8.488;2022-07-10T20:42:31;1.92;;;1.80;;
4391;SDS011;2210;51.938;8.488;2022-07-10T20:46:32;2.07;;;1.87;;
4391;SDS011;2210;51.938;8.488;2022-07-10T20:50:32;1.67;;;1.50;;
4391;SDS011;2210;51.938;8.488;2022-07-10T20:54:32;2.00;;;1.65;;
4391;SDS011;2210;51.938;8.488;2022-07-10T20:58:32;2.97;;;1.80;;
4391;SDS011;2210;51.938;8.488;2022-07-10T21:02:33;2.00;;;1.40;;
4391;SDS011;2210;51.938;8.488;2022-07-10T21:06:33;2.15;;;1.90;;
4391;SDS011;2210;51.938;8.488;2022-07-10T21:10:33;1.87;;;1.40;;
4391;SDS011;2210;51.938;8.488;2022-07-10T21:14:43;2.07;;;1.97;;
4391;SDS011;2210;51.938;8.488;2022-07-10T21:18:44;1.60;;;1.50;;
4391;SDS011;2210;51.938;8.488;2022-07-10T21:22:44;1.70;;;1.60;;
4391;SDS011;2210;51.938;8.488;2022-07-10T21:26:45;2.45;;;1.65;;
4391;SDS011;2210;51.938;8.488;2022-07-10T21:30:45;2.10;;;1.80;;
4391;SDS011;2210;51.938;8.488;2022-07-10T21:34:45;1.93;;;1.40;;
4391;SDS011;2210;51.938;8.488;2022-07-10T21:38:46;2.40;;;2.20;;
4391;SDS011;2210;51.938;8.488;2022-07-10T21:42:46;3.13;;;1.77;;
4391;SDS011;2210;51.938;8.488;2022-07-10T21:46:46;2.55;;;1.67;;
4391;SDS011;2210;51.938;8.488;2022-07-10T21:50:46;6.70;;;1.53;;
4391;SDS011;2210;51.938;8.488;2022-07-10T21:54:47;5.00;;;1.70;;
4391;SDS011;2210;51.938;8.488;2022-07-10T21:58:47;3.10;;;1.43;;
4391;SDS011;2210;51.938;8.488;2022-07-10T22:02:48;2.10;;;1.70;;
4391;SDS011;2210;51.938;8.488;2022-07-10T22:06:48;3.23;;;1.90;;
4391;SDS011;2210;51.938;8.488;2022-07-10T22:10:50;4.03;;;1.90;;
4391;SDS011;2210;51.938;8.488;2022-07-10T22:14:50;3.20;;;1.52;;
4391;SDS011;2210;51.938;8.488;2022-07-10T22:18:51;3.13;;;1.73;;
4391;SDS011;2210;51.938;8.488;2022-07-10T22:22:51;3.93;;;2.03;;
4391;SDS011;2210;51.938;8.488;2022-07-10T22:26:51;4.33;;;1.60;;
4391;SDS011;2210;51.938;8.488;2022-07-10T22:30:53;2.22;;;1.70;;
4391;SDS011;2210;51.938;8.488;2022-07-10T22:35:12;3.97;;;1.67;;
4391;SDS011;2210;51.938;8.488;2022-07-10T22:39:12;1.60;;;1.50;;
4391;SDS011;2210;51.938;8.488;2022-07-10T22:43:13;5.90;;;2.13;;
4391;SDS011;2210;51.938;8.488;2022-07-10T22:47:13;3.10;;;1.70;;
4391;SDS011;2210;51.938;8.488;2022-07-10T22:51:13;1.77;;;1.67;;
4391;SDS011;2210;51.938;8.488;2022-07-10T22:55:14;5.53;;;1.98;;
4391;SDS011;2210;51.938;8.488;2022-07-10T22:59:14;3.30;;;1.80;;
4391;SDS011;2210;51.938;8.488;2022-07-10T23:03:15;6.20;;;1.93;;
4391;SDS011;2210;51.938;8.488;2022-07-10T23:07:16;8.10;;;2.37;;
4391;SDS011;2210;51.938;8.488;2022-07-10T23:11:16;3.03;;;2.00;;
4391;SDS011;2210;51.938;8.488;2022-07-10T23:15:17;5.20;;;2.17;;
4391;SDS011;2210;51.938;8.488;2022-07-10T23:19:20;4.20;;;1.97;;
4391;SDS011;2210;51.938;8.488;2022-07-10T23:23:21;3.63;;;2.10;;
4391;SDS011;2210;51.938;8.488;2022-07-10T23:27:21;2.58;;;2.38;;
4391;SDS011;2210;51.938;8.488;2022-07-10T23:31:21;2.40;;;2.20;;
4391;SDS011;2210;51.938;8.488;2022-07-10T23:35:22;3.92;;;1.98;;
4391;SDS011;2210;51.938;8.488;2022-07-10T23:39:23;5.70;;;2.17;;
4391;SDS011;2210;51.938;8.488;2022-07-10T23:43:23;3.33;;;2.13;;
4391;SDS011;2210;51.938;8.488;2022-07-10T23:47:23;2.85;;;2.45;;
4391;SDS011;2210;51.938;8.488;2022-07-10T23:51:23;4.27;;;2.60;;
4391;SDS011;2210;51.938;8.488;2022-07-10T23:55:24;2.67;;;2.42;;
4391;SDS011;2210;51.938;8.488;2022-07-10T23:59:24;3.00;;;2.50;;
